Time;durP1;ratioP1;P1;durP2;ratioP2;P2;SDS_P1;SDS_P2;PMS_P1;PMS_P2;Temp;Humidity;BMP_temperature;BMP_pressure;BME280_temperature;BME280_humidity;BME280_pressure;Samples;Min_cycle;Max_cycle;Signal;HPM_P1;HPM_P2
2022/07/29 00:01:01;;;;;;;4.22;1.40;;;;;;;18.33;53.21;101480.19;5116154;27;20131;-86
2022/07/29 00:03:26;;;;;;;8.53;1.70;;;;;;;18.32;53.83;101486.78;5134617;27;20118;-86
2022/07/29 00:05:52;;;;;;;4.03;1.60;;;;;;;18.29;53.71;101484.53;5116229;27;20046;-86
2022/07/29 00:08:19;;;;;;;4.43;1.50;;;;;;;18.28;53.84;101487.50;5150299;27;20565;-86
2022/07/29 00:10:46;;;;;;;3.83;1.40;;;;;;;18.27;53.94;101481.19;5134445;27;20084;-86
2022/07/29 00:13:12;;;;;;;4.10;1.45;;;;;;;18.26;54.50;101474.03;5134392;27;20027;-86
2022/07/29 00:15:37;;;;;;;4.50;1.40;;;;;;;18.23;54.55;101483.63;5134460;27;20424;-86
2022/07/29 00:18:03;;;;;;;4.43;1.50;;;;;;;18.21;54.59;101474.78;5150405;27;20031;-85
2022/07/29 00:20:31;;;;;;;3.38;1.40;;;;;;;18.20;54.55;101473.16;5115969;28;20413;-86
2022/07/29 00:22:57;;;;;;;2.10;1.27;;;;;;;18.17;54.92;101473.66;5115955;28;20015;-85
2022/07/29 00:25:22;;;;;;;4.68;1.52;;;;;;;18.18;54.96;101474.47;5116572;28;20412;-85
2022/07/29 00:27:50;;;;;;;2.43;1.20;;;;;;;18.16;55.03;101482.97;5134653;28;20030;-85
2022/07/29 00:30:15;;;;;;;4.68;1.52;;;;;;;18.14;55.84;101481.53;5133670;27;20395;-85
2022/07/29 00:32:41;;;;;;;5.20;1.40;;;;;;;18.15;55.51;101486.78;5099313;28;20031;-86
2022/07/29 00:37:51;;;;;;;3.55;1.60;;;;;;;18.12;56.46;101486.47;5134892;28;20088;-85
2022/07/29 00:40:16;;;;;;;3.80;1.30;;;;;;;18.09;56.59;101493.28;5152526;27;20023;-85
2022/07/29 00:42:46;;;;;;;8.55;1.50;;;;;;;18.08;56.58;101499.84;5120234;27;20382;-86
2022/07/29 00:45:17;;;;;;;3.57;1.37;;;;;;;18.02;56.44;101512.66;5138602;27;20026;-85
2022/07/29 00:47:46;;;;;;;3.83;1.00;;;;;;;17.94;56.15;101524.06;5139348;27;20037;-85
2022/07/29 00:50:13;;;;;;;3.92;1.48;;;;;;;17.89;56.48;101532.16;5119774;27;20035;-85
2022/07/29 00:52:41;;;;;;;2.80;1.20;;;;;;;17.82;57.11;101520.50;5119999;27;20391;-85
2022/07/29 00:55:12;;;;;;;7.72;1.50;;;;;;;17.84;58.09;101510.13;5138114;27;20027;-86
2022/07/29 00:57:41;;;;;;;7.77;1.77;;;;;;;17.90;59.79;101500.94;5120522;27;20113;-85
2022/07/29 01:00:10;;;;;;;4.22;1.73;;;;;;;17.87;60.78;101493.16;5137952;27;20110;-86
2022/07/29 01:02:36;;;;;;;5.43;1.60;;;;;;;17.87;61.14;101499.47;5138262;27;20034;-86
2022/07/29 01:05:05;;;;;;;5.67;1.50;;;;;;;17.80;64.89;101485.06;5119560;27;20046;-86
2022/07/29 01:07:34;;;;;;;3.38;1.55;;;;;;;17.76;63.88;101483.94;5137914;27;20031;-86
2022/07/29 01:10:02;;;;;;;3.25;1.70;;;;;;;17.68;63.37;101465.13;5119694;27;20030;-86
2022/07/29 01:12:33;;;;;;;4.95;1.73;;;;;;;17.67;66.01;101463.44;5119842;27;20049;-86
2022/07/29 01:14:59;;;;;;;2.28;1.40;;;;;;;17.62;64.17;101455.13;5119967;27;20030;-86
2022/07/29 01:17:46;;;;;;;3.70;1.47;;;;;;;17.59;63.37;101450.16;5119228;27;20027;-86
2022/07/29 01:20:21;;;;;;;11.93;1.75;;;;;;;17.56;62.78;101443.25;5120337;27;20038;-85
2022/07/29 01:23:08;;;;;;;7.35;2.05;;;;;;;17.55;61.11;101430.59;5138488;27;20019;-85
2022/07/29 01:25:43;;;;;;;4.07;1.50;;;;;;;17.49;62.83;101421.47;5119665;27;20102;-86
2022/07/29 01:28:33;;;;;;;5.38;1.42;;;;;;;17.44;60.85;101399.41;5119113;27;20088;-85
2022/07/29 01:31:02;;;;;;;5.23;2.30;;;;;;;17.39;61.74;101407.56;5119346;27;20485;-85
2022/07/29 01:33:48;;;;;;;5.05;1.98;;;;;;;17.41;62.38;101394.44;5119241;27;20027;-85
2022/07/29 01:36:18;;;;;;;6.03;2.53;;;;;;;17.40;62.39;101394.69;5138287;27;20038;-85
2022/07/29 01:38:50;;;;;;;5.45;2.40;;;;;;;17.36;62.08;101397.06;5137952;27;20058;-85
2022/07/29 01:41:19;;;;;;;6.47;2.45;;;;;;;17.35;62.76;101399.00;5119589;27;20371;-85
2022/07/29 01:43:53;;;;;;;3.83;2.30;;;;;;;17.31;62.52;101399.72;5153230;27;20033;-85
2022/07/29 01:46:31;;;;;;;2.97;1.83;;;;;;;17.27;63.41;101404.91;5137789;27;20026;-85
2022/07/29 01:49:13;;;;;;;5.63;1.90;;;;;;;17.23;62.78;101402.88;5137164;27;20027;-85
2022/07/29 01:51:49;;;;;;;4.38;2.00;;;;;;;17.15;64.22;101410.41;5136767;27;20038;-85
2022/07/29 01:54:21;;;;;;;3.38;1.80;;;;;;;17.10;64.45;101418.56;5137266;27;20118;-85
2022/07/29 01:56:49;;;;;;;3.83;1.87;;;;;;;17.06;65.13;101422.84;5137375;27;20027;-85
2022/07/29 01:59:17;;;;;;;2.92;1.88;;;;;;;17.01;65.33;101417.28;5137176;27;20019;-85
2022/07/29 02:01:45;;;;;;;5.50;2.00;;;;;;;17.00;65.55;101416.44;5119042;27;20096;-85
2022/07/29 02:04:12;;;;;;;8.13;2.05;;;;;;;16.99;65.30;101409.31;5118672;27;20184;-86
2022/07/29 02:06:40;;;;;;;6.72;2.08;;;;;;;16.98;65.39;101410.38;5118654;27;20031;-85
2022/07/29 02:09:08;;;;;;;4.80;1.90;;;;;;;17.01;66.16;101406.31;5137015;27;20023;-85
2022/07/29 02:11:35;;;;;;;4.60;1.70;;;;;;;17.03;65.30;101403.34;5136987;27;20023;-85
2022/07/29 02:14:01;;;;;;;3.92;1.90;;;;;;;16.98;66.43;101395.84;5136861;27;20110;-85
2022/07/29 02:16:30;;;;;;;4.70;1.98;;;;;;;16.93;66.72;101399.34;5101751;27;20176;-85
2022/07/29 02:18:57;;;;;;;2.78;1.70;;;;;;;16.96;66.16;101406.22;5118347;27;20019;-84
2022/07/29 02:21:26;;;;;;;4.13;2.00;;;;;;;16.90;66.01;101398.97;5118374;27;20083;-85
2022/07/29 02:23:52;;;;;;;5.30;2.00;;;;;;;16.90;66.36;101399.78;5118195;27;20378;-85
2022/07/29 02:26:21;;;;;;;3.70;1.90;;;;;;;16.87;66.40;101393.94;5118433;27;20035;-85
2022/07/29 02:28:48;;;;;;;6.75;2.30;;;;;;;16.84;66.10;101401.59;5101152;27;20494;-85
2022/07/29 02:31:16;;;;;;;5.15;1.67;;;;;;;16.87;65.94;101396.69;5118122;27;20033;-85
2022/07/29 02:33:42;;;;;;;2.83;1.80;;;;;;;16.86;66.04;101398.63;5118036;27;20024;-85
2022/07/29 02:36:08;;;;;;;4.07;1.88;;;;;;;16.84;66.80;101401.59;5101962;27;20124;-84
2022/07/29 02:38:50;;;;;;;3.47;1.90;;;;;;;16.83;66.91;101397.19;5136171;27;20055;-85
2022/07/29 02:41:52;;;;;;;3.47;2.00;;;;;;;16.87;65.56;101388.47;5103705;27;20035;-85
2022/07/29 02:44:20;;;;;;;6.85;2.00;;;;;;;16.86;66.21;101389.53;5152205;27;20471;-85
2022/07/29 02:46:51;;;;;;;6.90;2.07;;;;;;;16.86;66.23;101384.91;5117713;27;20490;-85
2022/07/29 02:49:34;;;;;;;5.97;2.20;;;;;;;16.88;65.99;101387.44;5118087;27;20076;-85
2022/07/29 02:52:03;;;;;;;3.83;2.05;;;;;;;16.87;66.98;101386.59;5136210;27;20023;-84
2022/07/29 02:54:37;;;;;;;4.53;1.90;;;;;;;16.89;66.77;101395.41;5136054;27;20041;-85
2022/07/29 02:57:20;;;;;;;5.40;2.35;;;;;;;16.86;66.43;101401.34;5135901;27;20035;-85
2022/07/29 02:59:49;;;;;;;3.13;2.07;;;;;;;16.87;67.24;101404.91;5136332;27;20042;-85
2022/07/29 03:02:16;;;;;;;6.30;2.40;;;;;;;16.86;67.36;101404.09;5136370;27;20034;-85
2022/07/29 03:04:44;;;;;;;5.85;2.30;;;;;;;16.86;66.53;101401.34;5100027;27;20057;-85
2022/07/29 03:07:12;;;;;;;3.38;1.80;;;;;;;16.83;66.79;101401.84;5135888;27;20027;-85
2022/07/29 03:09:41;;;;;;;3.70;2.17;;;;;;;16.83;67.03;101410.06;5136087;27;20049;-85
2022/07/29 03:12:08;;;;;;;5.70;2.13;;;;;;;16.84;67.42;101403.50;5135772;27;20065;-85
2022/07/29 03:14:33;;;;;;;4.32;2.10;;;;;;;16.81;67.01;101401.25;5135752;27;20102;-85
2022/07/29 03:17:00;;;;;;;2.83;1.83;;;;;;;16.80;67.07;101405.03;5117666;27;20442;-85
2022/07/29 03:19:26;;;;;;;3.05;1.92;;;;;;;16.76;66.52;101401.16;5100281;27;20126;-85
2022/07/29 03:21:51;;;;;;;6.28;2.10;;;;;;;16.74;67.40;101400.53;5100278;27;20027;-85
2022/07/29 03:24:29;;;;;;;3.77;2.20;;;;;;;16.73;66.87;101396.16;5135575;27;20089;-85
2022/07/29 03:26:56;;;;;;;4.50;2.05;;;;;;;16.70;67.74;101391.13;5134461;27;20088;-86
2022/07/29 03:29:21;;;;;;;3.28;1.95;;;;;;;16.65;67.28;101392.72;5100597;27;20060;-85
2022/07/29 03:31:47;;;;;;;5.00;2.03;;;;;;;16.62;67.80;101395.94;5135790;27;20443;-85
2022/07/29 03:34:12;;;;;;;4.13;2.40;;;;;;;16.56;67.41;101391.41;5116865;27;20084;-85
2022/07/29 03:36:38;;;;;;;5.80;2.60;;;;;;;16.52;67.81;101390.25;5083182;27;20031;-85
2022/07/29 03:39:04;;;;;;;6.17;2.10;;;;;;;16.49;67.69;101390.75;5099745;27;20031;-85
2022/07/29 03:41:31;;;;;;;5.45;2.38;;;;;;;16.40;68.23;101400.38;5117157;27;20064;-85
2022/07/29 03:43:58;;;;;;;4.18;2.20;;;;;;;16.34;68.29;101401.34;5135171;27;20134;-85
2022/07/29 03:46:28;;;;;;;7.45;2.30;;;;;;;16.31;68.41;101399.94;5134113;27;20391;-85
2022/07/29 03:48:59;;;;;;;7.38;2.28;;;;;;;16.25;68.38;101396.22;5135196;27;20035;-85
2022/07/29 03:51:25;;;;;;;6.43;2.70;;;;;;;16.23;68.67;101406.59;5116611;27;20030;-85
2022/07/29 03:53:51;;;;;;;6.63;2.10;;;;;;;16.19;69.10;101402.69;5134696;27;20042;-85
2022/07/29 03:56:21;;;;;;;5.53;2.25;;;;;;;16.16;68.92;101396.84;5116888;27;20027;-85
2022/07/29 03:58:49;;;;;;;4.18;2.05;;;;;;;16.10;69.11;101390.44;5135041;27;20054;-85
2022/07/29 04:01:17;;;;;;;7.68;2.25;;;;;;;16.06;69.49;101394.72;5116877;27;20039;-85
2022/07/29 04:03:45;;;;;;;3.70;2.30;;;;;;;16.03;69.41;101404.22;5134591;27;20509;-86
2022/07/29 04:06:11;;;;;;;5.40;2.10;;;;;;;16.01;69.69;101400.09;5099607;28;20031;-86
2022/07/29 04:08:37;;;;;;;4.72;2.13;;;;;;;15.97;70.01;101388.75;5116247;28;20055;-85
2022/07/29 04:11:04;;;;;;;8.70;2.15;;;;;;;15.95;70.04;101382.72;5116436;27;20031;-85
2022/07/29 04:13:30;;;;;;;5.80;2.25;;;;;;;15.98;70.16;101382.22;5116371;28;20031;-85
2022/07/29 04:15:56;;;;;;;4.77;1.90;;;;;;;16.02;70.26;101385.31;5116137;27;20069;-85
2022/07/29 04:18:21;;;;;;;4.47;2.10;;;;;;;16.02;70.42;101377.94;5099097;28;20409;-85
2022/07/29 04:20:46;;;;;;;9.47;2.23;;;;;;;16.03;70.76;101378.78;5099459;28;20087;-85
2022/07/29 04:23:12;;;;;;;4.57;2.20;;;;;;;16.03;70.35;101384.25;5099678;28;20039;-85
2022/07/29 04:25:39;;;;;;;5.03;1.97;;;;;;;16.01;71.17;101384.50;5116856;28;20475;-85
2022/07/29 04:28:05;;;;;;;4.97;2.17;;;;;;;15.98;70.69;101384.97;5116406;28;20035;-85
2022/07/29 04:30:31;;;;;;;6.53;2.57;;;;;;;16.02;70.87;101385.31;5116203;28;20035;-85
2022/07/29 04:32:57;;;;;;;6.47;2.50;;;;;;;16.04;70.76;101388.66;5134535;28;20305;-84
2022/07/29 04:35:22;;;;;;;4.47;2.00;;;;;;;16.03;70.69;101390.53;5099534;28;20027;-85
2022/07/29 04:37:48;;;;;;;6.23;2.20;;;;;;;16.04;70.83;101391.41;5133314;28;20049;-85
2022/07/29 04:40:13;;;;;;;9.13;2.30;;;;;;;16.05;70.90;101399.38;5099255;28;20112;-85
2022/07/29 04:42:39;;;;;;;5.22;2.20;;;;;;;16.07;71.34;101407.34;5134284;28;20378;-84
2022/07/29 04:45:05;;;;;;;4.47;2.20;;;;;;;16.07;71.51;101413.63;5116201;28;20031;-85
2022/07/29 04:47:31;;;;;;;5.00;2.58;;;;;;;16.03;71.77;101423.38;5099025;28;20023;-84
2022/07/29 04:49:56;;;;;;;5.20;2.60;;;;;;;16.03;71.80;101420.66;5116390;28;20041;-85
2022/07/29 04:52:22;;;;;;;2.97;2.60;;;;;;;16.03;72.02;101419.81;5134147;28;20426;-85
2022/07/29 04:54:48;;;;;;;3.85;2.50;;;;;;;16.02;72.51;101427.22;5134625;28;20451;-85
2022/07/29 04:57:14;;;;;;;4.97;2.42;;;;;;;15.97;73.06;101438.03;5116090;28;20038;-85
2022/07/29 04:59:39;;;;;;;4.50;2.33;;;;;;;15.96;73.63;101439.94;5133988;28;20031;-85
2022/07/29 05:02:05;;;;;;;6.47;2.90;;;;;;;15.96;73.48;101445.41;5133037;28;20059;-85
2022/07/29 05:04:30;;;;;;;6.75;2.70;;;;;;;15.96;73.27;101450.88;5134706;28;20069;-85
2022/07/29 05:06:55;;;;;;;4.93;2.67;;;;;;;15.99;73.54;101440.53;5099572;28;20114;-84
2022/07/29 05:09:21;;;;;;;5.10;2.43;;;;;;;16.01;73.28;101452.09;5115869;28;20031;-84
2022/07/29 05:11:46;;;;;;;4.63;2.70;;;;;;;16.04;73.47;101459.81;5116041;28;20031;-85
2022/07/29 05:14:12;;;;;;;3.97;2.60;;;;;;;16.10;73.38;101454.22;5115486;28;20060;-85
2022/07/29 05:16:38;;;;;;;5.07;3.00;;;;;;;16.19;73.29;101448.41;5134443;28;20299;-84
2022/07/29 05:19:04;;;;;;;4.90;2.78;;;;;;;16.23;73.06;101458.63;5099084;28;20035;-85
2022/07/29 05:21:29;;;;;;;4.70;3.13;;;;;;;16.26;72.71;101449.94;5115854;28;20485;-85
2022/07/29 05:23:55;;;;;;;5.47;2.90;;;;;;;16.26;72.88;101449.09;5099092;28;20487;-84
2022/07/29 05:26:20;;;;;;;8.00;3.47;;;;;;;16.34;72.52;101456.13;5134521;27;20031;-84
2022/07/29 05:28:45;;;;;;;5.67;3.00;;;;;;;16.36;72.78;101456.69;5120012;27;20352;-84
2022/07/29 05:31:11;;;;;;;12.57;3.17;;;;;;;16.35;72.11;101453.16;5103052;27;20043;-84
2022/07/29 05:33:36;;;;;;;10.77;3.28;;;;;;;16.37;72.25;101453.75;5137298;27;20080;-84
2022/07/29 05:36:02;;;;;;;9.23;3.10;;;;;;;16.38;72.54;101457.31;5119604;27;20125;-83
2022/07/29 05:38:28;;;;;;;11.07;3.90;;;;;;;16.38;72.17;101444.44;5102130;27;20031;-83
2022/07/29 05:40:56;;;;;;;13.90;3.67;;;;;;;16.40;72.31;101446.94;5119116;27;20385;-81
2022/07/29 05:43:22;;;;;;;11.43;3.15;;;;;;;16.46;72.41;101444.09;5137891;27;20031;-89
2022/07/29 05:45:47;;;;;;;14.60;3.20;;;;;;;16.53;72.36;101452.16;5102177;27;20062;-84
2022/07/29 05:48:12;;;;;;;14.48;3.70;;;;;;;16.63;71.84;101446.91;5119100;27;20474;-84
2022/07/29 05:50:38;;;;;;;12.43;3.70;;;;;;;16.74;71.48;101452.59;5118598;27;20092;-85
2022/07/29 05:53:03;;;;;;;6.40;3.73;;;;;;;16.80;71.13;101448.88;5135657;27;20031;-84
2022/07/29 05:55:29;;;;;;;8.00;3.47;;;;;;;16.89;70.93;101443.88;5118613;27;20027;-83
2022/07/29 05:57:54;;;;;;;7.80;3.33;;;;;;;16.94;70.29;101439.34;5137231;27;20042;-84
2022/07/29 06:00:19;;;;;;;5.30;3.53;;;;;;;17.00;70.20;101443.03;5119066;27;20041;-83
2022/07/29 06:02:45;;;;;;;6.50;3.05;;;;;;;17.04;70.23;101444.22;5101627;27;20107;-84
2022/07/29 06:05:10;;;;;;;5.20;3.20;;;;;;;17.07;69.98;101443.72;5118975;27;20050;-84
2022/07/29 06:07:35;;;;;;;7.33;3.67;;;;;;;17.01;69.73;101450.19;5118732;27;20084;-84
2022/07/29 06:10:01;;;;;;;10.63;3.73;;;;;;;16.99;70.18;101444.09;5118451;27;20042;-83
2022/07/29 06:12:26;;;;;;;8.13;3.97;;;;;;;16.99;70.06;101450.44;5136865;27;20490;-84
2022/07/29 06:14:51;;;;;;;12.60;4.13;;;;;;;16.96;69.98;101448.19;5118985;27;20031;-84
2022/07/29 06:17:17;;;;;;;5.05;3.63;;;;;;;16.97;70.12;101451.75;5101491;27;20108;-84
2022/07/29 06:19:42;;;;;;;6.67;3.50;;;;;;;17.01;70.30;101456.50;5135518;27;20498;-84
2022/07/29 06:22:07;;;;;;;6.13;3.40;;;;;;;17.03;69.78;101456.25;5136718;27;20051;-84
2022/07/29 06:24:33;;;;;;;6.93;3.73;;;;;;;17.06;69.68;101455.75;5135299;27;20035;-84
2022/07/29 06:26:58;;;;;;;6.93;3.80;;;;;;;17.10;69.92;101450.63;5084623;27;20030;-83
2022/07/29 06:29:24;;;;;;;14.40;3.80;;;;;;;17.17;69.77;101449.41;5117939;27;20039;-84
2022/07/29 06:31:49;;;;;;;13.05;3.85;;;;;;;17.20;69.74;101453.56;5118047;27;20363;-83
2022/07/29 06:34:15;;;;;;;6.87;4.07;;;;;;;17.28;69.15;101455.91;5118012;27;20508;-84
2022/07/29 06:36:40;;;;;;;6.27;3.90;;;;;;;17.33;69.22;101453.28;5135497;27;20073;-83
2022/07/29 06:39:06;;;;;;;5.43;3.67;;;;;;;17.36;69.60;101455.53;5117586;27;20027;-83
2022/07/29 06:41:32;;;;;;;5.37;3.57;;;;;;;17.40;69.17;101460.50;5117771;27;20489;-84
2022/07/29 06:43:57;;;;;;;5.13;3.58;;;;;;;17.42;69.01;101458.34;5136389;27;20106;-84
2022/07/29 06:46:23;;;;;;;11.83;4.87;;;;;;;17.47;69.09;101463.94;5152262;27;20027;-82
2022/07/29 06:48:49;;;;;;;7.80;3.90;;;;;;;17.50;68.67;101452.47;5135716;27;20059;-85
2022/07/29 06:51:15;;;;;;;4.00;3.60;;;;;;;17.49;69.07;101470.00;5136390;27;20055;-86
2022/07/29 06:53:41;;;;;;;4.78;3.72;;;;;;;17.47;68.72;101469.41;5117363;27;20103;-86
2022/07/29 06:56:08;;;;;;;9.07;3.83;;;;;;;17.50;68.33;101468.91;5117988;27;20099;-85
2022/07/29 06:58:34;;;;;;;6.50;3.67;;;;;;;17.48;68.70;101465.56;5117598;27;20035;-85
2022/07/29 07:01:02;;;;;;;5.45;3.60;;;;;;;17.52;68.30;101469.50;5117608;27;20030;-85
2022/07/29 07:03:28;;;;;;;8.57;3.50;;;;;;;17.58;68.62;101476.72;5117148;27;20055;-85
2022/07/29 07:05:53;;;;;;;8.13;3.83;;;;;;;17.69;68.10;101475.84;5135879;27;20372;-86
2022/07/29 07:08:19;;;;;;;7.37;3.53;;;;;;;17.80;68.04;101482.31;5117200;27;20065;-86
2022/07/29 07:10:45;;;;;;;6.97;3.65;;;;;;;17.93;68.16;101474.91;5118174;27;20500;-85
2022/07/29 07:13:14;;;;;;;6.47;4.07;;;;;;;18.00;67.68;101479.13;5117656;27;20088;-87
2022/07/29 07:15:39;;;;;;;7.07;3.63;;;;;;;18.00;67.30;101479.13;5136039;27;20062;-85
2022/07/29 07:18:05;;;;;;;6.55;3.60;;;;;;;17.96;66.93;101480.72;5117278;27;20391;-86
2022/07/29 07:20:32;;;;;;;5.67;4.13;;;;;;;17.97;66.91;101478.81;5135851;27;20039;-86
2022/07/29 07:22:57;;;;;;;6.07;4.13;;;;;;;17.94;67.10;101487.53;5116931;27;20038;-86
2022/07/29 07:25:23;;;;;;;7.43;4.17;;;;;;;17.96;67.56;101483.44;5135090;27;20039;-86
2022/07/29 07:27:48;;;;;;;4.05;3.65;;;;;;;18.02;67.03;101476.97;5117371;27;20027;-86
2022/07/29 07:30:14;;;;;;;10.10;4.10;;;;;;;18.10;67.28;101488.59;5135441;27;20063;-86
2022/07/29 07:32:39;;;;;;;7.07;4.30;;;;;;;18.15;66.42;101484.03;5117155;27;20072;-86
2022/07/29 07:35:07;;;;;;;7.90;4.07;;;;;;;18.27;66.79;101489.44;5117119;27;20027;-85
2022/07/29 07:37:32;;;;;;;9.55;4.30;;;;;;;18.35;66.56;101471.69;5100313;27;20046;-86
2022/07/29 07:39:58;;;;;;;9.20;3.93;;;;;;;18.46;66.15;101483.66;5135279;27;20378;-86
2022/07/29 07:42:24;;;;;;;6.10;4.25;;;;;;;18.47;66.07;101482.56;5116566;27;20487;-86
2022/07/29 07:44:49;;;;;;;5.03;3.97;;;;;;;18.50;65.96;101482.91;5099768;27;20038;-86
2022/07/29 07:47:19;;;;;;;8.87;4.60;;;;;;;18.47;65.64;101482.56;5116985;27;20445;-86
2022/07/29 07:49:47;;;;;;;7.95;4.13;;;;;;;18.42;65.52;101488.81;5133639;27;20102;-86
2022/07/29 07:52:14;;;;;;;6.95;3.95;;;;;;;18.42;66.07;101488.81;5135102;27;20427;-86
2022/07/29 07:54:39;;;;;;;8.02;4.35;;;;;;;18.44;66.24;101489.41;5134873;27;20027;-86
2022/07/29 07:57:05;;;;;;;7.47;4.00;;;;;;;18.47;66.15;101485.31;5116476;27;20057;-86
2022/07/29 07:59:30;;;;;;;8.87;4.30;;;;;;;18.50;66.00;101487.56;5082543;27;20122;-87
2022/07/29 08:01:56;;;;;;;7.60;3.85;;;;;;;18.54;66.29;101489.56;5116494;27;20115;-86
2022/07/29 08:04:21;;;;;;;10.97;4.00;;;;;;;18.57;65.87;101490.94;5133517;27;20075;-86
2022/07/29 08:06:49;;;;;;;9.40;4.10;;;;;;;18.54;66.18;101483.22;5116781;28;20042;-86
2022/07/29 08:09:15;;;;;;;5.72;3.78;;;;;;;18.57;66.38;101489.06;5133852;27;20043;-85
2022/07/29 08:11:40;;;;;;;6.05;4.10;;;;;;;18.62;65.93;101488.28;5116827;27;20482;-86
2022/07/29 08:14:05;;;;;;;7.20;3.93;;;;;;;18.66;65.93;101486.72;5116073;28;20035;-86
2022/07/29 08:16:31;;;;;;;5.53;3.80;;;;;;;18.71;66.07;101489.50;5134615;27;20470;-86
2022/07/29 08:18:56;;;;;;;9.63;4.03;;;;;;;18.71;65.17;101485.94;5116385;28;20035;-86
2022/07/29 08:21:23;;;;;;;6.33;3.90;;;;;;;18.70;65.47;101487.84;5115957;28;20395;-84
2022/07/29 08:24:42;;;;;;;9.13;4.30;;;;;;;18.73;65.88;101494.75;5116158;28;20035;-86
2022/07/29 08:26:41;;;;;;;7.85;4.30;;;;;;;18.76;65.96;101491.50;5134468;27;20043;-86
2022/07/29 08:29:06;;;;;;;8.07;4.28;;;;;;;18.83;65.68;101499.56;5134016;27;20359;-86
2022/07/29 08:31:31;;;;;;;9.73;4.10;;;;;;;18.91;65.92;101494.47;5116473;28;20059;-86
2022/07/29 08:33:59;;;;;;;11.37;4.70;;;;;;;19.00;65.74;101502.25;5133462;28;20087;-86
2022/07/29 08:36:25;;;;;;;6.93;4.90;;;;;;;19.08;65.98;101499.06;5116048;28;20060;-86
2022/07/29 08:38:50;;;;;;;5.47;4.40;;;;;;;19.20;65.60;101508.00;5098801;28;20036;-85
2022/07/29 08:41:18;;;;;;;6.47;4.57;;;;;;;19.31;64.80;101503.47;5133592;28;20035;-86
2022/07/29 08:43:46;;;;;;;8.75;4.70;;;;;;;19.37;64.67;101501.59;5099308;28;20477;-86
2022/07/29 08:46:12;;;;;;;9.03;4.60;;;;;;;19.35;63.29;101496.34;5134308;28;20034;-86
2022/07/29 08:48:38;;;;;;;9.60;4.70;;;;;;;19.40;63.95;101501.91;5115740;28;20073;-86
2022/07/29 08:51:07;;;;;;;9.98;4.30;;;;;;;19.50;63.80;101503.09;5098940;28;20031;-86
2022/07/29 08:53:33;;;;;;;7.37;3.90;;;;;;;19.55;63.19;101504.00;5150013;27;20023;-86
2022/07/29 08:55:59;;;;;;;8.25;4.20;;;;;;;19.67;63.05;101500.25;5115472;28;20042;-86
2022/07/29 08:58:26;;;;;;;6.88;4.10;;;;;;;19.77;62.68;101497.59;5115964;28;20039;-86
2022/07/29 09:00:54;;;;;;;5.15;4.07;;;;;;;19.87;62.11;101507.88;5135465;27;20534;-86
2022/07/29 09:03:22;;;;;;;8.00;4.03;;;;;;;19.92;60.95;101505.19;5138012;27;20062;-86
2022/07/29 09:05:48;;;;;;;7.10;4.40;;;;;;;19.94;61.04;101497.50;5138113;27;20035;-86
2022/07/29 09:08:15;;;;;;;9.15;3.22;;;;;;;19.98;60.05;101506.88;5119757;27;20576;-84
2022/07/29 09:10:41;;;;;;;11.43;3.83;;;;;;;20.07;59.99;101505.31;5137734;27;20547;-84
2022/07/29 09:13:06;;;;;;;6.83;3.43;;;;;;;20.16;60.22;101509.22;5102518;27;20125;-84
2022/07/29 09:15:32;;;;;;;7.70;3.83;;;;;;;20.21;58.75;101510.38;5137688;27;20127;-84
2022/07/29 09:17:58;;;;;;;7.43;3.35;;;;;;;20.26;59.79;101504.91;5137797;27;20032;-84
2022/07/29 09:20:25;;;;;;;9.15;4.20;;;;;;;20.31;60.23;101500.25;5119478;27;20038;-84
2022/07/29 09:22:53;;;;;;;5.68;3.30;;;;;;;20.50;59.18;101497.88;5119804;27;20042;-85
2022/07/29 09:25:39;;;;;;;5.90;3.60;;;;;;;20.70;59.09;101504.66;5119251;27;20019;-86
2022/07/29 09:28:13;;;;;;;5.25;3.00;;;;;;;20.86;56.72;101508.31;5137619;27;20375;-85
2022/07/29 09:30:59;;;;;;;9.82;3.42;;;;;;;21.06;57.10;101515.03;5137706;27;20437;-84
2022/07/29 09:33:38;;;;;;;8.05;3.17;;;;;;;21.25;56.22;101507.91;5118543;27;20050;-85
2022/07/29 09:36:06;;;;;;;9.55;3.50;;;;;;;21.46;55.52;101517.06;5137537;27;20034;-84
2022/07/29 09:38:33;;;;;;;6.10;3.50;;;;;;;21.58;54.95;101508.56;5137824;27;20031;-85
2022/07/29 09:41:00;;;;;;;9.02;4.10;;;;;;;21.66;54.91;101504.44;5102207;27;20149;-84
2022/07/29 09:43:26;;;;;;;7.22;3.33;;;;;;;21.69;55.21;101506.66;5119356;27;20038;-85
2022/07/29 09:45:51;;;;;;;5.80;2.93;;;;;;;21.76;53.63;101504.47;5102089;27;20027;-85
2022/07/29 09:48:22;;;;;;;7.10;2.80;;;;;;;21.84;53.93;101511.34;5137660;27;20114;-85
2022/07/29 09:50:49;;;;;;;5.23;3.10;;;;;;;21.92;52.93;101507.22;5137294;27;20027;-84
2022/07/29 09:53:31;;;;;;;6.32;3.22;;;;;;;22.01;53.13;101502.78;5137148;27;20031;-85
2022/07/29 09:55:56;;;;;;;7.03;3.45;;;;;;;22.06;52.54;101503.63;5101830;27;20031;-86
2022/07/29 09:58:22;;;;;;;5.40;3.57;;;;;;;22.16;51.77;101496.41;5119317;27;20031;-85
2022/07/29 10:00:50;;;;;;;6.53;3.28;;;;;;;22.30;51.26;101505.81;5152916;27;20023;-85
2022/07/29 10:03:17;;;;;;;6.85;2.88;;;;;;;22.53;50.80;101498.03;5136839;27;20047;-85
2022/07/29 10:05:44;;;;;;;7.20;2.47;;;;;;;22.68;49.83;101497.19;5101566;27;20486;-85
2022/07/29 10:08:12;;;;;;;6.82;2.83;;;;;;;22.74;48.84;101504.34;5137378;27;20031;-85
2022/07/29 10:10:41;;;;;;;5.55;3.00;;;;;;;22.86;47.97;101495.75;5118624;27;20031;-85
2022/07/29 10:13:14;;;;;;;5.18;2.60;;;;;;;22.95;49.09;101494.84;5118314;27;20106;-85
2022/07/29 10:15:45;;;;;;;7.07;2.63;;;;;;;23.10;48.50;101491.25;5118990;27;20023;-85
2022/07/29 10:18:12;;;;;;;5.53;2.90;;;;;;;23.12;47.49;101489.00;5119230;27;20027;-85
2022/07/29 10:20:38;;;;;;;6.65;2.83;;;;;;;23.30;46.87;101498.59;5118382;27;20031;-85
2022/07/29 10:23:04;;;;;;;7.88;3.10;;;;;;;23.47;47.18;101492.69;5101633;27;20042;-85
2022/07/29 10:25:30;;;;;;;7.32;3.03;;;;;;;23.67;46.43;101492.81;5119002;27;20035;-84
2022/07/29 10:27:56;;;;;;;5.45;2.60;;;;;;;23.84;46.15;101493.22;5118115;27;20057;-85
2022/07/29 10:30:24;;;;;;;7.30;2.97;;;;;;;24.00;45.96;101496.72;5101095;27;20027;-85
2022/07/29 10:33:11;;;;;;;7.38;3.00;;;;;;;24.21;45.76;101493.75;5117849;27;20062;-85
2022/07/29 10:36:01;;;;;;;7.30;3.00;;;;;;;24.26;45.06;101493.72;5117888;27;20031;-83
2022/07/29 10:38:48;;;;;;;4.33;2.80;;;;;;;24.42;45.45;101491.59;5136417;27;20035;-83
2022/07/29 10:41:37;;;;;;;4.07;2.67;;;;;;;24.68;45.06;101489.41;5136595;27;20186;-84
2022/07/29 10:44:08;;;;;;;7.60;2.90;;;;;;;25.06;43.94;101483.94;5118200;27;20421;-84
2022/07/29 10:46:38;;;;;;;7.40;2.58;;;;;;;25.28;42.66;101486.13;5136272;27;20102;-84
2022/07/29 10:49:15;;;;;;;6.75;2.80;;;;;;;25.59;43.33;101485.69;5135726;27;20106;-85
2022/07/29 10:51:59;;;;;;;5.03;2.57;;;;;;;25.83;42.94;101473.66;5117866;27;20027;-84
2022/07/29 10:54:41;;;;;;;8.02;2.60;;;;;;;26.01;42.04;101475.56;5117483;27;20076;-85
2022/07/29 10:57:15;;;;;;;12.70;3.10;;;;;;;26.19;41.51;101482.22;5117341;27;20459;-84
2022/07/29 10:59:43;;;;;;;6.20;2.85;;;;;;;26.24;39.83;101486.84;5135652;27;20066;-87
2022/07/29 11:02:33;;;;;;;8.55;2.90;;;;;;;26.58;40.84;101482.88;5117863;27;20080;-85
2022/07/29 11:05:00;;;;;;;5.47;2.73;;;;;;;26.86;39.39;101477.31;5135788;27;20046;-86
2022/07/29 11:07:26;;;;;;;8.65;3.00;;;;;;;27.04;38.81;101479.13;5117128;27;20395;-85
2022/07/29 11:10:13;;;;;;;8.98;3.20;;;;;;;27.22;40.24;101474.56;5117104;27;20034;-83
2022/07/29 11:12:39;;;;;;;6.35;2.70;;;;;;;27.44;38.27;101472.97;5135533;27;20045;-82
2022/07/29 11:15:07;;;;;;;6.90;2.90;;;;;;;27.36;36.66;101470.94;5135387;27;20023;-86
2022/07/29 11:17:52;;;;;;;8.35;2.65;;;;;;;27.45;37.78;101472.66;5117041;27;20026;-86
2022/07/29 11:20:37;;;;;;;6.40;2.20;;;;;;;27.71;37.14;101476.78;5117008;27;20471;-86
2022/07/29 11:23:25;;;;;;;8.18;3.08;;;;;;;28.11;36.66;101474.94;5116486;27;20027;-86
2022/07/29 11:26:09;;;;;;;5.10;2.60;;;;;;;29.40;34.57;101485.22;5135389;27;20080;-86
2022/07/29 11:28:39;;;;;;;6.10;2.30;;;;;;;32.13;29.44;101470.28;5117169;27;20035;-86
2022/07/29 11:31:07;;;;;;;7.10;2.63;;;;;;;34.03;26.07;101470.84;5117348;27;20151;-86
2022/07/29 11:33:34;;;;;;;5.00;2.37;;;;;;;35.93;24.22;101465.13;5135158;27;20033;-86